createdAt,value
2018-12-31T00:04:52.952Z,97769.35
2018-12-31T00:07:21.344Z,97765.31
2018-12-31T00:09:49.732Z,97759.55
2018-12-31T00:12:18.180Z,97758.31
2018-12-31T00:14:46.585Z,97755.50
2018-12-31T00:17:14.994Z,97752.31
2018-12-31T00:22:17.078Z,97760.39
2018-12-31T00:27:19.341Z,97760.93
2018-12-31T00:29:47.749Z,97765.81
2018-12-31T00:32:16.142Z,97776.73
2018-12-31T00:34:44.562Z,97777.59
2018-12-31T00:37:13.081Z,97779.74
2018-12-31T00:39:41.473Z,97780.30
2018-12-31T00:42:09.861Z,97775.15
2018-12-31T00:44:38.362Z,97775.63
2018-12-31T00:47:06.757Z,97774.80
2018-12-31T00:49:35.243Z,97776.85
2018-12-31T00:52:03.755Z,97782.45
2018-12-31T00:54:32.145Z,97781.97
2018-12-31T00:57:00.624Z,97786.77
2018-12-31T00:59:29.075Z,97788.91
2018-12-31T01:01:57.468Z,97785.90
2018-12-31T01:04:25.859Z,97786.46
2018-12-31T01:09:28.693Z,97788.98
2018-12-31T01:11:57.119Z,97788.53
2018-12-31T01:14:25.506Z,97783.38
2018-12-31T01:16:53.905Z,97782.08
2018-12-31T01:21:56.567Z,97788.80
2018-12-31T01:24:25.131Z,97785.61
2018-12-31T01:26:53.614Z,97788.53
2018-12-31T01:29:22.009Z,97785.44
2018-12-31T01:31:50.439Z,97798.72
2018-12-31T01:34:18.839Z,97798.16
2018-12-31T01:36:47.230Z,97796.38
2018-12-31T01:39:15.773Z,97797.13
2018-12-31T01:41:44.171Z,97790.13
2018-12-31T01:44:12.563Z,97785.45
2018-12-31T01:49:15.288Z,97783.19
2018-12-31T01:51:56.216Z,97791.44
2018-12-31T01:54:24.608Z,97786.20
2018-12-31T01:56:53.072Z,97786.56
2018-12-31T02:01:55.924Z,97809.02
2018-12-31T02:06:58.106Z,97810.44
2018-12-31T02:12:00.402Z,97812.67
2018-12-31T02:17:21.900Z,97818.30
2018-12-31T02:19:50.427Z,97814.06
2018-12-31T02:22:18.894Z,97812.95
2018-12-31T02:24:47.283Z,97811.46
2018-12-31T02:27:15.786Z,97804.25
2018-12-31T02:29:44.182Z,97795.91
2018-12-31T02:32:14.436Z,97793.47
2018-12-31T02:34:42.796Z,97798.34
2018-12-31T02:37:11.190Z,97800.13
2018-12-31T02:39:39.577Z,97797.03
2018-12-31T02:42:08.093Z,97792.16
2018-12-31T02:44:36.488Z,97791.33
2018-12-31T02:47:04.880Z,97790.48
2018-12-31T02:49:33.294Z,97791.72
2018-12-31T02:52:01.677Z,97789.54
2018-12-31T02:54:30.066Z,97790.02
2018-12-31T02:56:58.536Z,97782.64
2018-12-31T02:59:26.934Z,97781.98
2018-12-31T03:01:55.320Z,97777.94
2018-12-31T03:04:23.742Z,97785.71
2018-12-31T03:06:52.145Z,97783.01
2018-12-31T03:09:20.554Z,97775.90
2018-12-31T03:11:49.000Z,97763.55
2018-12-31T03:14:17.396Z,97752.72
2018-12-31T03:16:45.786Z,97753.72
2018-12-31T03:19:14.216Z,97743.15
2018-12-31T03:21:42.606Z,97745.58
2018-12-31T03:24:11.001Z,97746.23
2018-12-31T03:26:39.426Z,97741.67
2018-12-31T03:29:07.813Z,97738.19
2018-12-31T03:31:36.242Z,97740.45
2018-12-31T03:36:38.934Z,97736.23
2018-12-31T03:39:07.441Z,97737.93
2018-12-31T03:41:35.903Z,97734.36
2018-12-31T03:44:04.291Z,97733.88
2018-12-31T03:46:32.706Z,97731.66
2018-12-31T03:49:01.104Z,97726.69
2018-12-31T03:51:29.485Z,97724.81
2018-12-31T03:56:32.323Z,97719.48
2018-12-31T03:59:00.842Z,97721.00
2018-12-31T04:01:29.308Z,97718.09
2018-12-31T04:03:57.701Z,97727.81
2018-12-31T04:06:26.229Z,97726.50
2018-12-31T04:09:35.133Z,97727.34
2018-12-31T04:12:04.700Z,97729.59
2018-12-31T04:14:33.073Z,97732.69
2018-12-31T04:17:01.492Z,97728.20
2018-12-31T04:19:29.918Z,97722.10
2018-12-31T04:21:58.317Z,97720.26
2018-12-31T04:24:26.705Z,97724.07
2018-12-31T04:26:55.113Z,97722.87
2018-12-31T04:29:23.523Z,97717.64
2018-12-31T04:31:51.897Z,97710.62
2018-12-31T04:36:54.690Z,97712.11
2018-12-31T04:39:23.111Z,97706.39
2018-12-31T04:41:51.573Z,97710.72
2018-12-31T04:44:19.960Z,97716.39
2018-12-31T04:49:22.811Z,97704.91
2018-12-31T04:51:51.235Z,97703.23
2018-12-31T04:54:19.626Z,97702.77
2018-12-31T04:56:48.024Z,97700.89
2018-12-31T04:59:16.539Z,97701.99
2018-12-31T05:01:44.932Z,97708.45
2018-12-31T05:04:13.324Z,97704.52
2018-12-31T05:06:41.845Z,97703.12
2018-12-31T05:09:10.234Z,97703.03
2018-12-31T05:11:38.655Z,97688.16
2018-12-31T05:16:41.563Z,97678.42
2018-12-31T05:21:43.990Z,97684.80
2018-12-31T05:26:46.780Z,97691.70
2018-12-31T05:29:15.201Z,97704.80
2018-12-31T05:34:17.611Z,97712.09
2018-12-31T05:36:46.123Z,97711.73
2018-12-31T05:39:14.513Z,97713.05
2018-12-31T05:41:42.904Z,97714.35
2018-12-31T05:44:11.500Z,97717.80
2018-12-31T05:46:39.891Z,97734.66
2018-12-31T05:49:08.287Z,97733.91
2018-12-31T05:51:36.801Z,97737.36
2018-12-31T05:54:05.200Z,97742.69
2018-12-31T05:56:33.594Z,97745.96
2018-12-31T05:59:02.357Z,97747.83
2018-12-31T06:01:30.920Z,97743.91
2018-12-31T06:03:59.318Z,97737.00
2018-12-31T06:06:27.780Z,97741.77
2018-12-31T06:08:56.168Z,97737.36
2018-12-31T06:11:24.572Z,97731.77
2018-12-31T06:13:52.985Z,97733.99
2018-12-31T06:16:21.375Z,97738.31
2018-12-31T06:18:49.763Z,97747.00
2018-12-31T06:21:18.373Z,97747.83
2018-12-31T06:23:46.921Z,97755.22
2018-12-31T06:26:15.260Z,97754.66
2018-12-31T06:28:44.121Z,97752.25
2018-12-31T06:31:12.509Z,97754.75
2018-12-31T06:33:40.910Z,97748.11
2018-12-31T06:36:09.371Z,97749.72
2018-12-31T06:38:37.774Z,97754.40
2018-12-31T06:41:06.163Z,97756.90
2018-12-31T06:43:34.712Z,97751.66
2018-12-31T06:46:03.104Z,97752.61
2018-12-31T06:48:31.495Z,97756.27
2018-12-31T06:51:00.042Z,97758.67
2018-12-31T06:53:28.436Z,97760.67
2018-12-31T06:55:56.830Z,97759.05
2018-12-31T06:58:25.507Z,97762.52
2018-12-31T07:00:54.023Z,97765.25
2018-12-31T07:03:22.488Z,97772.16
2018-12-31T07:05:51.025Z,97764.86
2018-12-31T07:08:19.417Z,97770.67
2018-12-31T07:10:47.819Z,97773.48
2018-12-31T07:13:16.574Z,97771.21
2018-12-31T07:15:44.967Z,97773.09
2018-12-31T07:18:13.359Z,97773.29
2018-12-31T07:20:41.814Z,97777.70
2018-12-31T07:23:10.204Z,97773.65
2018-12-31T07:25:38.667Z,97772.07
2018-12-31T07:28:07.085Z,97774.41
2018-12-31T07:30:35.482Z,97784.50
2018-12-31T07:33:03.867Z,97780.96
2018-12-31T07:35:32.491Z,97783.11
2018-12-31T07:38:00.905Z,97785.34
2018-12-31T07:40:29.335Z,97790.22
2018-12-31T07:42:58.134Z,97787.59
2018-12-31T07:45:26.529Z,97787.59
2018-12-31T07:47:54.935Z,97791.53
2018-12-31T07:50:23.365Z,97789.27
2018-12-31T07:52:51.765Z,97784.89
2018-12-31T07:55:20.174Z,97791.05
2018-12-31T07:57:48.585Z,97784.70
2018-12-31T08:00:16.980Z,97785.27
2018-12-31T08:02:45.367Z,97781.88
2018-12-31T08:05:13.947Z,97789.20
2018-12-31T08:07:42.340Z,97789.55
2018-12-31T08:10:10.732Z,97789.95
2018-12-31T08:12:39.391Z,97782.92
2018-12-31T08:15:07.947Z,97779.83
2018-12-31T08:17:36.331Z,97777.21
2018-12-31T08:20:05.482Z,97784.15
2018-12-31T08:22:33.885Z,97785.06
2018-12-31T08:25:02.294Z,97777.13
2018-12-31T08:27:31.099Z,97781.53
2018-12-31T08:29:59.496Z,97782.45
2018-12-31T08:32:27.897Z,97785.45
2018-12-31T08:34:56.438Z,97788.08
2018-12-31T08:37:24.828Z,97785.06
2018-12-31T08:39:53.294Z,97777.95
2018-12-31T08:42:22.062Z,97783.47
2018-12-31T08:44:50.457Z,97783.02
2018-12-31T08:47:18.876Z,97786.39
2018-12-31T08:49:47.356Z,97791.90
2018-12-31T08:52:15.908Z,97796.58
2018-12-31T08:54:44.310Z,97796.77
2018-12-31T08:57:12.753Z,97802.48
2018-12-31T08:59:41.151Z,97800.61
2018-12-31T09:02:09.535Z,97798.91
2018-12-31T09:04:38.212Z,97797.04
2018-12-31T09:07:06.611Z,97792.55
2018-12-31T09:09:35.001Z,97794.25
2018-12-31T09:12:03.429Z,97791.26
2018-12-31T09:14:31.818Z,97805.57
2018-12-31T09:17:00.208Z,97811.82
2018-12-31T09:19:29.005Z,97819.15
2018-12-31T09:21:57.446Z,97813.99
2018-12-31T09:24:25.832Z,97808.45
2018-12-31T09:26:54.399Z,97804.72
2018-12-31T09:29:22.786Z,97802.67
2018-12-31T09:31:51.180Z,97799.86
2018-12-31T09:34:19.605Z,97807.97
2018-12-31T09:36:48.003Z,97805.08
2018-12-31T09:39:16.408Z,97803.94
2018-12-31T09:41:44.858Z,97812.92
2018-12-31T09:44:13.242Z,97808.33
2018-12-31T09:46:41.634Z,97817.49
2018-12-31T09:49:10.352Z,97812.73
2018-12-31T09:51:38.745Z,97798.33
2018-12-31T09:54:07.140Z,97803.84
2018-12-31T09:56:35.688Z,97801.78
2018-12-31T09:59:04.084Z,97804.31
2018-12-31T10:01:32.476Z,97806.94
2018-12-31T10:04:01.037Z,97798.60
2018-12-31T10:06:29.428Z,97808.24
2018-12-31T10:08:57.820Z,97797.02
2018-12-31T10:11:26.364Z,97800.20
2018-12-31T10:13:54.757Z,97800.11
2018-12-31T10:16:23.219Z,97801.22
2018-12-31T10:18:52.015Z,97801.61
2018-12-31T10:21:20.400Z,97796.73
2018-12-31T10:23:48.800Z,97784.95
2018-12-31T10:26:17.674Z,97782.72
2018-12-31T10:28:46.060Z,97782.91
2018-12-31T10:31:14.464Z,97790.59
2018-12-31T10:33:42.966Z,97787.89
2018-12-31T10:36:11.348Z,97787.59
2018-12-31T10:38:39.744Z,97788.05
2018-12-31T10:41:08.342Z,97785.73
2018-12-31T10:43:36.748Z,97790.02
2018-12-31T10:46:05.208Z,97781.69
2018-12-31T10:51:46.794Z,97790.86
2018-12-31T10:54:15.186Z,97787.88
2018-12-31T10:56:43.581Z,97781.16
2018-12-31T10:59:12.215Z,97789.20
2018-12-31T11:01:40.610Z,97780.78
2018-12-31T11:04:08.999Z,97779.83
2018-12-31T11:06:37.424Z,97783.19
2018-12-31T11:09:06.962Z,97783.76
2018-12-31T11:11:35.350Z,97777.98
2018-12-31T11:14:03.957Z,97774.87
2018-12-31T11:16:32.352Z,97764.12
2018-12-31T11:19:00.748Z,97767.41
2018-12-31T11:21:29.168Z,97764.12
2018-12-31T11:23:57.557Z,97764.30
2018-12-31T11:26:25.962Z,97761.20
2018-12-31T11:28:54.736Z,97760.76
2018-12-31T11:31:30.016Z,97756.91
2018-12-31T11:33:53.328Z,97760.02
2018-12-31T11:36:22.032Z,97765.52
2018-12-31T11:38:50.425Z,97757.09
2018-12-31T11:41:18.811Z,97759.63
2018-12-31T11:43:47.481Z,97753.08
2018-12-31T11:46:15.933Z,97752.34
2018-12-31T11:48:44.339Z,97751.02
2018-12-31T11:51:12.799Z,97749.72
2018-12-31T11:53:41.191Z,97743.64
2018-12-31T11:56:09.584Z,97743.91
2018-12-31T11:58:38.349Z,97742.39
2018-12-31T12:01:06.746Z,97735.11
2018-12-31T12:03:35.134Z,97742.67
2018-12-31T12:06:03.589Z,97739.22
2018-12-31T12:08:32.042Z,97738.86
2018-12-31T12:11:00.521Z,97746.16
2018-12-31T12:21:33.059Z,97735.31
2018-12-31T12:26:35.166Z,97739.42
2018-12-31T12:31:38.079Z,97740.08
2018-12-31T12:34:06.537Z,97737.55
2018-12-31T12:36:34.943Z,97734.09
2018-12-31T12:44:31.370Z,97742.04
2018-12-31T12:46:59.762Z,97743.70
2018-12-31T12:52:02.399Z,97731.56
2018-12-31T12:54:30.850Z,97729.77
2018-12-31T12:56:59.246Z,97728.11
2018-12-31T12:59:27.642Z,97719.86
2018-12-31T13:04:30.319Z,97722.87
2018-12-31T13:09:33.044Z,97725.58
2018-12-31T13:14:35.595Z,97717.06
2018-12-31T13:17:04.000Z,97717.90
2018-12-31T13:19:32.400Z,97729.51
2018-12-31T13:22:00.790Z,97728.38
2018-12-31T13:27:03.647Z,97726.59
2018-12-31T13:32:06.369Z,97730.81
2018-12-31T13:34:34.825Z,97726.77
2018-12-31T13:37:03.219Z,97719.20
2018-12-31T13:39:31.613Z,97731.09
2018-12-31T13:44:53.129Z,97737.61
2018-12-31T13:49:55.597Z,97731.23
2018-12-31T13:54:57.925Z,97729.83
2018-12-31T14:00:47.095Z,97740.14
2018-12-31T14:05:50.086Z,97736.20
2018-12-31T14:10:52.956Z,97749.48
2018-12-31T14:15:55.323Z,97748.39
2018-12-31T14:20:57.688Z,97744.28
2018-12-31T14:26:19.720Z,97748.20
2018-12-31T14:31:24.244Z,97760.84
2018-12-31T14:36:26.588Z,97754.94
2018-12-31T14:41:28.910Z,97759.61
2018-12-31T14:46:31.115Z,97756.92
2018-12-31T14:51:33.800Z,97753.81
2018-12-31T14:54:02.217Z,97754.38
2018-12-31T14:56:30.614Z,97756.43
2018-12-31T14:58:59.012Z,97757.47
2018-12-31T15:01:39.886Z,97765.41
2018-12-31T15:04:08.280Z,97764.74
2018-12-31T15:06:36.675Z,97773.63
2018-12-31T15:09:45.070Z,97775.42
2018-12-31T15:12:13.472Z,97777.56
2018-12-31T15:14:41.864Z,97784.67
2018-12-31T15:19:43.921Z,97791.58
2018-12-31T15:24:46.005Z,97800.16
2018-12-31T15:29:48.858Z,97799.77
2018-12-31T15:32:36.568Z,97798.54
2018-12-31T15:35:44.881Z,97800.33
2018-12-31T15:38:13.386Z,97802.47
2018-12-31T15:40:41.785Z,97804.89
2018-12-31T15:43:10.176Z,97810.48
2018-12-31T15:45:40.419Z,97808.17
2018-12-31T15:48:08.809Z,97808.53
2018-12-31T15:50:37.196Z,97806.20
2018-12-31T15:53:05.719Z,97805.36
2018-12-31T15:55:34.113Z,97804.61
2018-12-31T15:58:04.239Z,97806.87
2018-12-31T16:03:07.015Z,97803.50
2018-12-31T16:08:09.300Z,97803.38
2018-12-31T16:10:37.800Z,97797.79
2018-12-31T16:13:06.186Z,97792.08
2018-12-31T16:15:34.583Z,97792.56
2018-12-31T16:18:02.997Z,97800.52
2018-12-31T16:20:31.394Z,97802.13
2018-12-31T16:22:59.787Z,97799.90
2018-12-31T16:28:01.824Z,97798.89
2018-12-31T16:30:30.223Z,97793.75
2018-12-31T16:36:12.530Z,97796.65
2018-12-31T16:41:28.821Z,97802.75
2018-12-31T16:43:57.265Z,97801.72
2018-12-31T16:46:25.715Z,97806.39
2018-12-31T16:48:55.826Z,97806.31
2018-12-31T16:51:24.344Z,97813.61
2018-12-31T16:53:52.742Z,97800.78
2018-12-31T16:56:21.133Z,97800.22
2018-12-31T16:58:49.668Z,97793.67
2018-12-31T17:01:19.776Z,97797.60
2018-12-31T17:03:48.178Z,97801.92
2018-12-31T17:06:16.678Z,97800.13
2018-12-31T17:08:45.064Z,97805.45
2018-12-31T17:11:13.456Z,97810.91
2018-12-31T17:13:41.886Z,97827.63
2018-12-31T17:16:10.351Z,97822.58
2018-12-31T17:18:38.749Z,97824.33
2018-12-31T17:21:07.269Z,97818.73
2018-12-31T17:23:35.671Z,97808.34
2018-12-31T17:26:04.068Z,97814.98
2018-12-31T17:31:08.003Z,97803.56
2018-12-31T17:33:36.520Z,97809.19
2018-12-31T17:36:04.918Z,97809.28
2018-12-31T17:38:33.306Z,97808.44
2018-12-31T17:41:01.825Z,97807.22
2018-12-31T17:43:30.204Z,97810.84
2018-12-31T17:45:58.602Z,97814.02
2018-12-31T17:48:27.115Z,97821.87
2018-12-31T17:50:55.521Z,97824.61
2018-12-31T17:53:25.634Z,97825.52
2018-12-31T17:55:54.055Z,97820.77
2018-12-31T17:58:22.446Z,97820.28
2018-12-31T18:00:50.836Z,97811.13
2018-12-31T18:03:19.302Z,97814.22
2018-12-31T18:05:49.546Z,97814.69
2018-12-31T18:08:17.936Z,97818.23
2018-12-31T18:10:46.438Z,97817.75
2018-12-31T18:13:14.917Z,97821.67
2018-12-31T18:15:43.311Z,97813.37
2018-12-31T18:20:46.310Z,97819.81
2018-12-31T18:25:48.869Z,97821.87
2018-12-31T18:28:17.263Z,97823.18
2018-12-31T18:33:19.981Z,97826.08
2018-12-31T18:38:22.683Z,97825.41
2018-12-31T18:43:27.121Z,97810.73
2018-12-31T18:45:55.561Z,97822.05
2018-12-31T18:48:43.362Z,97815.14
2018-12-31T18:51:31.105Z,97821.48
2018-12-31T18:53:59.503Z,97832.70
2018-12-31T18:56:27.901Z,97838.34
2018-12-31T18:58:58.125Z,97843.09
2018-12-31T19:01:26.527Z,97847.86
2018-12-31T19:03:54.921Z,97850.31
2018-12-31T19:06:23.342Z,97856.38
2018-12-31T19:08:51.735Z,97855.91
2018-12-31T19:11:20.134Z,97858.08
2018-12-31T19:13:48.553Z,97862.45
2018-12-31T19:16:16.950Z,97864.16
2018-12-31T19:18:45.347Z,97863.04
2018-12-31T19:23:47.913Z,97853.42
2018-12-31T19:26:16.389Z,97856.60
2018-12-31T19:28:44.775Z,97854.91
2018-12-31T19:34:00.625Z,97848.91
2018-12-31T19:36:29.019Z,97856.41
2018-12-31T19:38:57.410Z,97852.95
2018-12-31T19:43:59.789Z,97865.10
2018-12-31T19:46:29.983Z,97863.79
2018-12-31T19:48:58.371Z,97866.33
2018-12-31T19:52:06.793Z,97871.48
2018-12-31T19:54:35.229Z,97870.62
2018-12-31T19:57:03.623Z,97874.09
2018-12-31T20:02:06.095Z,97867.72
2018-12-31T20:04:36.267Z,97863.31
2018-12-31T20:07:24.007Z,97856.33
2018-12-31T20:12:26.007Z,97850.22
2018-12-31T20:17:28.471Z,97850.34
2018-12-31T20:22:30.518Z,97850.14
2018-12-31T20:27:34.485Z,97856.77
2018-12-31T20:30:02.883Z,97863.23
2018-12-31T20:35:05.013Z,97855.57
2018-12-31T20:40:08.823Z,97848.19
2018-12-31T20:42:37.231Z,97850.08
2018-12-31T20:45:45.817Z,97843.25
2018-12-31T20:48:14.220Z,97843.08
2018-12-31T20:50:42.619Z,97845.78
2018-12-31T20:53:11.076Z,97844.73
2018-12-31T20:55:39.475Z,97843.70
2018-12-31T20:58:07.872Z,97834.70
2018-12-31T21:03:09.913Z,97838.19
2018-12-31T21:08:12.299Z,97832.76
2018-12-31T21:10:40.742Z,97827.13
2018-12-31T21:13:09.139Z,97832.01
2018-12-31T21:15:37.537Z,97828.44
2018-12-31T21:18:05.993Z,97822.45
2018-12-31T21:20:34.389Z,97827.33
2018-12-31T21:23:02.786Z,97826.02
2018-12-31T21:28:05.620Z,97842.26
2018-12-31T21:30:34.061Z,97834.41
2018-12-31T21:33:02.493Z,97834.88
2018-12-31T21:35:50.197Z,97834.05
2018-12-31T21:38:18.600Z,97830.95
2018-12-31T21:40:47.005Z,97819.09
2018-12-31T21:43:15.523Z,97819.48
2018-12-31T21:45:43.920Z,97826.77
2018-12-31T21:48:12.346Z,97832.28
2018-12-31T21:53:14.710Z,97830.61
2018-12-31T21:58:17.556Z,97833.98
2018-12-31T22:03:19.590Z,97831.56
2018-12-31T22:08:22.304Z,97831.56
2018-12-31T22:13:24.644Z,97834.92
2018-12-31T22:15:53.075Z,97828.82
2018-12-31T22:18:21.465Z,97825.28
2018-12-31T22:20:49.856Z,97826.52
2018-12-31T22:25:52.226Z,97828.46
2018-12-31T22:28:20.880Z,97818.83
2018-12-31T22:30:49.287Z,97817.52
2018-12-31T22:33:17.674Z,97820.13
2018-12-31T22:35:46.088Z,97816.20
2018-12-31T22:38:14.487Z,97813.23
2018-12-31T22:40:42.887Z,97815.37
2018-12-31T22:45:45.302Z,97813.59
2018-12-31T22:50:47.638Z,97806.00
2018-12-31T22:53:16.033Z,97808.83
2018-12-31T22:58:18.090Z,97807.79
2018-12-31T23:00:46.685Z,97801.17
2018-12-31T23:03:15.179Z,97797.89
2018-12-31T23:05:43.600Z,97791.44
2018-12-31T23:08:12.029Z,97791.34
2018-12-31T23:10:40.429Z,97785.45
2018-12-31T23:13:08.840Z,97780.12
2018-12-31T23:15:37.362Z,97786.68
2018-12-31T23:18:05.762Z,97784.41
2018-12-31T23:20:34.180Z,97783.50
2018-12-31T23:23:02.699Z,97785.43
2018-12-31T23:25:31.122Z,97783.20
2018-12-31T23:27:59.526Z,97781.89
2018-12-31T23:30:28.115Z,97782.45
2018-12-31T23:32:56.524Z,97780.48
2018-12-31T23:35:24.940Z,97775.81
2018-12-31T23:40:47.936Z,97776.75
2018-12-31T23:43:16.351Z,97776.45
2018-12-31T23:45:44.768Z,97768.80
2018-12-31T23:50:46.782Z,97762.72
2018-12-31T23:53:15.178Z,97763.36
2018-12-31T23:55:43.720Z,97771.39
2018-12-31T23:58:12.123Z,97777.50
